sensor_id;sensor_type;location;lat;lon;timestamp;P1;durP1;ratioP1;P2;durP2;ratioP2
44706;SDS011;30433;45.596;8.408;2023-07-22T00:00:39;7.47;;;4.40;;
44706;SDS011;30433;45.596;8.408;2023-07-22T00:06:43;6.45;;;4.22;;
44706;SDS011;30433;45.596;8.408;2023-07-22T00:12:45;8.10;;;4.47;;
44706;SDS011;30433;45.596;8.408;2023-07-22T00:24:50;6.07;;;4.38;;
44706;SDS011;30433;45.596;8.408;2023-07-22T00:30:52;5.38;;;4.53;;
44706;SDS011;30433;45.596;8.408;2023-07-22T00:36:54;10.30;;;4.57;;
44706;SDS011;30433;45.596;8.408;2023-07-22T00:42:58;4.82;;;4.25;;
44706;SDS011;30433;45.596;8.408;2023-07-22T00:49:00;5.38;;;4.20;;
44706;SDS011;30433;45.596;8.408;2023-07-22T00:55:03;6.07;;;4.63;;
44706;SDS011;30433;45.596;8.408;2023-07-22T01:01:07;6.25;;;3.63;;
44706;SDS011;30433;45.596;8.408;2023-07-22T01:07:10;5.30;;;4.25;;
44706;SDS011;30433;45.596;8.408;2023-07-22T01:13:12;6.35;;;4.35;;
44706;SDS011;30433;45.596;8.408;2023-07-22T01:19:16;8.38;;;4.63;;
44706;SDS011;30433;45.596;8.408;2023-07-22T01:25:21;7.03;;;4.47;;
44706;SDS011;30433;45.596;8.408;2023-07-22T01:31:24;8.43;;;4.63;;
44706;SDS011;30433;45.596;8.408;2023-07-22T01:43:30;5.47;;;4.60;;
44706;SDS011;30433;45.596;8.408;2023-07-22T01:49:32;7.20;;;3.92;;
44706;SDS011;30433;45.596;8.408;2023-07-22T01:55:34;6.57;;;4.70;;
44706;SDS011;30433;45.596;8.408;2023-07-22T02:01:38;7.63;;;4.32;;
44706;SDS011;30433;45.596;8.408;2023-07-22T02:07:40;7.22;;;4.63;;
44706;SDS011;30433;45.596;8.408;2023-07-22T02:19:45;6.40;;;4.93;;
44706;SDS011;30433;45.596;8.408;2023-07-22T02:25:48;7.95;;;4.70;;
44706;SDS011;30433;45.596;8.408;2023-07-22T02:31:50;7.35;;;4.45;;
44706;SDS011;30433;45.596;8.408;2023-07-22T02:37:54;5.15;;;4.57;;
44706;SDS011;30433;45.596;8.408;2023-07-22T02:43:56;7.95;;;4.75;;
44706;SDS011;30433;45.596;8.408;2023-07-22T02:49:58;8.15;;;4.68;;
44706;SDS011;30433;45.596;8.408;2023-07-22T02:56:01;6.82;;;5.03;;
44706;SDS011;30433;45.596;8.408;2023-07-22T03:02:04;5.60;;;5.03;;
44706;SDS011;30433;45.596;8.408;2023-07-22T03:14:10;8.13;;;5.68;;
44706;SDS011;30433;45.596;8.408;2023-07-22T03:20:12;8.82;;;5.07;;
44706;SDS011;30433;45.596;8.408;2023-07-22T03:26:16;8.05;;;5.28;;
44706;SDS011;30433;45.596;8.408;2023-07-22T03:32:20;7.38;;;5.60;;
44706;SDS011;30433;45.596;8.408;2023-07-22T03:38:22;9.07;;;6.32;;
44706;SDS011;30433;45.596;8.408;2023-07-22T03:44:24;8.20;;;5.07;;
44706;SDS011;30433;45.596;8.408;2023-07-22T03:50:30;7.47;;;5.38;;
44706;SDS011;30433;45.596;8.408;2023-07-22T03:56:32;12.32;;;6.40;;
44706;SDS011;30433;45.596;8.408;2023-07-22T04:02:35;9.27;;;5.88;;
44706;SDS011;30433;45.596;8.408;2023-07-22T04:14:40;7.38;;;5.38;;
44706;SDS011;30433;45.596;8.408;2023-07-22T04:20:42;9.07;;;6.38;;
44706;SDS011;30433;45.596;8.408;2023-07-22T04:26:46;6.95;;;5.35;;
44706;SDS011;30433;45.596;8.408;2023-07-22T04:32:48;13.40;;;5.88;;
44706;SDS011;30433;45.596;8.408;2023-07-22T04:38:50;16.35;;;6.10;;
44706;SDS011;30433;45.596;8.408;2023-07-22T04:44:54;7.88;;;5.32;;
44706;SDS011;30433;45.596;8.408;2023-07-22T04:50:56;11.80;;;5.03;;
44706;SDS011;30433;45.596;8.408;2023-07-22T04:56:58;7.93;;;4.40;;
44706;SDS011;30433;45.596;8.408;2023-07-22T05:03:02;12.88;;;5.47;;
44706;SDS011;30433;45.596;8.408;2023-07-22T05:09:04;11.02;;;5.22;;
44706;SDS011;30433;45.596;8.408;2023-07-22T05:15:07;8.95;;;5.25;;
44706;SDS011;30433;45.596;8.408;2023-07-22T05:21:12;9.13;;;5.85;;
44706;SDS011;30433;45.596;8.408;2023-07-22T05:27:14;7.18;;;5.70;;
44706;SDS011;30433;45.596;8.408;2023-07-22T05:33:17;16.45;;;5.72;;
44706;SDS011;30433;45.596;8.408;2023-07-22T05:51:24;8.20;;;5.70;;
44706;SDS011;30433;45.596;8.408;2023-07-22T06:03:29;9.23;;;5.78;;
44706;SDS011;30433;45.596;8.408;2023-07-22T06:15:35;5.15;;;4.65;;
44706;SDS011;30433;45.596;8.408;2023-07-22T06:21:37;5.88;;;4.55;;
44706;SDS011;30433;45.596;8.408;2023-07-22T06:33:42;4.65;;;4.10;;
44706;SDS011;30433;45.596;8.408;2023-07-22T06:39:45;7.63;;;4.20;;
44706;SDS011;30433;45.596;8.408;2023-07-22T06:51:50;4.80;;;4.05;;
44706;SDS011;30433;45.596;8.408;2023-07-22T06:57:55;5.38;;;3.85;;
44706;SDS011;30433;45.596;8.408;2023-07-22T07:03:57;4.13;;;3.72;;
44706;SDS011;30433;45.596;8.408;2023-07-22T07:10:01;5.60;;;3.92;;
44706;SDS011;30433;45.596;8.408;2023-07-22T07:16:22;5.45;;;3.80;;
44706;SDS011;30433;45.596;8.408;2023-07-22T07:22:26;5.63;;;3.60;;
44706;SDS011;30433;45.596;8.408;2023-07-22T07:28:30;5.05;;;4.03;;
44706;SDS011;30433;45.596;8.408;2023-07-22T07:34:32;5.47;;;3.70;;
44706;SDS011;30433;45.596;8.408;2023-07-22T07:40:34;11.48;;;4.55;;
44706;SDS011;30433;45.596;8.408;2023-07-22T07:46:38;8.15;;;4.55;;
44706;SDS011;30433;45.596;8.408;2023-07-22T07:52:40;4.28;;;3.88;;
44706;SDS011;30433;45.596;8.408;2023-07-22T07:58:43;8.63;;;4.05;;
44706;SDS011;30433;45.596;8.408;2023-07-22T08:04:48;5.47;;;4.10;;
44706;SDS011;30433;45.596;8.408;2023-07-22T08:10:57;6.15;;;3.90;;
44706;SDS011;30433;45.596;8.408;2023-07-22T08:17:00;8.43;;;4.18;;
44706;SDS011;30433;45.596;8.408;2023-07-22T08:23:05;5.32;;;3.92;;
44706;SDS011;30433;45.596;8.408;2023-07-22T08:29:07;6.35;;;3.97;;
44706;SDS011;30433;45.596;8.408;2023-07-22T08:35:11;4.55;;;3.70;;
44706;SDS011;30433;45.596;8.408;2023-07-22T08:41:15;5.40;;;4.50;;
44706;SDS011;30433;45.596;8.408;2023-07-22T08:47:18;17.23;;;5.63;;
44706;SDS011;30433;45.596;8.408;2023-07-22T08:53:23;9.93;;;5.30;;
44706;SDS011;30433;45.596;8.408;2023-07-22T08:59:27;9.10;;;4.63;;
44706;SDS011;30433;45.596;8.408;2023-07-22T09:05:30;5.78;;;4.72;;
44706;SDS011;30433;45.596;8.408;2023-07-22T09:11:33;8.65;;;4.45;;
44706;SDS011;30433;45.596;8.408;2023-07-22T09:17:37;19.45;;;5.15;;
44706;SDS011;30433;45.596;8.408;2023-07-22T09:23:40;6.20;;;4.47;;
44706;SDS011;30433;45.596;8.408;2023-07-22T09:29:42;11.77;;;5.68;;
44706;SDS011;30433;45.596;8.408;2023-07-22T09:35:50;6.05;;;4.88;;
44706;SDS011;30433;45.596;8.408;2023-07-22T09:42:05;9.05;;;4.40;;
44706;SDS011;30433;45.596;8.408;2023-07-22T09:48:09;8.48;;;4.28;;
44706;SDS011;30433;45.596;8.408;2023-07-22T09:54:12;9.98;;;4.00;;
44706;SDS011;30433;45.596;8.408;2023-07-22T10:00:15;7.72;;;3.83;;
44706;SDS011;30433;45.596;8.408;2023-07-22T10:06:19;7.70;;;4.28;;
44706;SDS011;30433;45.596;8.408;2023-07-22T10:12:23;4.18;;;3.45;;
44706;SDS011;30433;45.596;8.408;2023-07-22T10:18:28;5.85;;;3.38;;
44706;SDS011;30433;45.596;8.408;2023-07-22T10:24:32;5.40;;;3.33;;
44706;SDS011;30433;45.596;8.408;2023-07-22T10:30:35;6.80;;;3.70;;
44706;SDS011;30433;45.596;8.408;2023-07-22T10:36:38;6.22;;;3.55;;
44706;SDS011;30433;45.596;8.408;2023-07-22T10:42:40;7.22;;;3.67;;
44706;SDS011;30433;45.596;8.408;2023-07-22T10:48:43;6.70;;;4.22;;
44706;SDS011;30433;45.596;8.408;2023-07-22T10:54:47;6.07;;;4.30;;
44706;SDS011;30433;45.596;8.408;2023-07-22T11:00:50;5.88;;;3.85;;
44706;SDS011;30433;45.596;8.408;2023-07-22T11:06:54;11.52;;;4.43;;
44706;SDS011;30433;45.596;8.408;2023-07-22T11:12:56;5.68;;;3.85;;
44706;SDS011;30433;45.596;8.408;2023-07-22T11:19:00;7.32;;;3.80;;
44706;SDS011;30433;45.596;8.408;2023-07-22T11:25:04;4.85;;;4.00;;
44706;SDS011;30433;45.596;8.408;2023-07-22T11:31:07;6.03;;;4.10;;
44706;SDS011;30433;45.596;8.408;2023-07-22T11:37:09;7.05;;;4.07;;
44706;SDS011;30433;45.596;8.408;2023-07-22T11:43:13;6.55;;;4.60;;
44706;SDS011;30433;45.596;8.408;2023-07-22T11:49:26;5.82;;;4.70;;
44706;SDS011;30433;45.596;8.408;2023-07-22T11:55:29;6.05;;;4.05;;
44706;SDS011;30433;45.596;8.408;2023-07-22T12:01:33;7.07;;;4.53;;
44706;SDS011;30433;45.596;8.408;2023-07-22T12:07:35;6.15;;;4.97;;
44706;SDS011;30433;45.596;8.408;2023-07-22T12:13:38;6.90;;;4.43;;
44706;SDS011;30433;45.596;8.408;2023-07-22T12:19:53;5.35;;;4.07;;
44706;SDS011;30433;45.596;8.408;2023-07-22T12:25:55;5.97;;;4.78;;
44706;SDS011;30433;45.596;8.408;2023-07-22T12:31:57;7.45;;;4.68;;
44706;SDS011;30433;45.596;8.408;2023-07-22T12:38:01;5.85;;;4.60;;
44706;SDS011;30433;45.596;8.408;2023-07-22T12:44:03;6.93;;;4.85;;
44706;SDS011;30433;45.596;8.408;2023-07-22T12:50:06;8.18;;;5.22;;
44706;SDS011;30433;45.596;8.408;2023-07-22T12:56:10;8.02;;;5.65;;
44706;SDS011;30433;45.596;8.408;2023-07-22T13:02:12;7.10;;;5.22;;
44706;SDS011;30433;45.596;8.408;2023-07-22T13:08:14;8.30;;;5.30;;
44706;SDS011;30433;45.596;8.408;2023-07-22T13:14:18;6.68;;;5.32;;
44706;SDS011;30433;45.596;8.408;2023-07-22T13:20:20;6.85;;;5.50;;
44706;SDS011;30433;45.596;8.408;2023-07-22T13:26:22;8.90;;;5.50;;
44706;SDS011;30433;45.596;8.408;2023-07-22T13:32:26;7.80;;;4.72;;
44706;SDS011;30433;45.596;8.408;2023-07-22T13:38:28;7.75;;;5.22;;
44706;SDS011;30433;45.596;8.408;2023-07-22T13:44:30;6.50;;;5.30;;
44706;SDS011;30433;45.596;8.408;2023-07-22T13:50:34;7.25;;;4.80;;
44706;SDS011;30433;45.596;8.408;2023-07-22T13:56:36;6.40;;;5.00;;
44706;SDS011;30433;45.596;8.408;2023-07-22T14:02:38;10.30;;;4.97;;
44706;SDS011;30433;45.596;8.408;2023-07-22T14:08:42;5.68;;;4.53;;
44706;SDS011;30433;45.596;8.408;2023-07-22T14:14:44;7.20;;;5.03;;
44706;SDS011;30433;45.596;8.408;2023-07-22T14:20:46;7.90;;;4.93;;
44706;SDS011;30433;45.596;8.408;2023-07-22T14:26:50;5.80;;;4.53;;
44706;SDS011;30433;45.596;8.408;2023-07-22T14:32:52;5.57;;;4.88;;
44706;SDS011;30433;45.596;8.408;2023-07-22T14:38:54;7.47;;;4.55;;
44706;SDS011;30433;45.596;8.408;2023-07-22T14:44:59;6.75;;;4.30;;
44706;SDS011;30433;45.596;8.408;2023-07-22T14:51:01;7.00;;;4.60;;
44706;SDS011;30433;45.596;8.408;2023-07-22T14:57:03;8.13;;;4.90;;
44706;SDS011;30433;45.596;8.408;2023-07-22T15:03:07;6.70;;;4.88;;
44706;SDS011;30433;45.596;8.408;2023-07-22T15:09:09;6.18;;;5.10;;
44706;SDS011;30433;45.596;8.408;2023-07-22T15:15:12;7.07;;;5.22;;
44706;SDS011;30433;45.596;8.408;2023-07-22T15:21:15;7.72;;;4.82;;
44706;SDS011;30433;45.596;8.408;2023-07-22T15:27:18;5.75;;;4.60;;
44706;SDS011;30433;45.596;8.408;2023-07-22T15:33:20;7.30;;;5.15;;
44706;SDS011;30433;45.596;8.408;2023-07-22T15:39:23;5.93;;;4.85;;
44706;SDS011;30433;45.596;8.408;2023-07-22T15:45:26;7.45;;;5.00;;
44706;SDS011;30433;45.596;8.408;2023-07-22T15:51:28;5.25;;;4.60;;
44706;SDS011;30433;45.596;8.408;2023-07-22T15:57:31;7.93;;;5.25;;
44706;SDS011;30433;45.596;8.408;2023-07-22T16:03:34;6.68;;;4.55;;
44706;SDS011;30433;45.596;8.408;2023-07-22T16:09:37;7.55;;;4.60;;
44706;SDS011;30433;45.596;8.408;2023-07-22T16:15:41;6.68;;;4.40;;
44706;SDS011;30433;45.596;8.408;2023-07-22T16:21:43;7.63;;;4.40;;
44706;SDS011;30433;45.596;8.408;2023-07-22T16:27:45;6.80;;;4.97;;
44706;SDS011;30433;45.596;8.408;2023-07-22T16:33:49;6.75;;;4.75;;
44706;SDS011;30433;45.596;8.408;2023-07-22T16:39:51;5.28;;;4.68;;
44706;SDS011;30433;45.596;8.408;2023-07-22T16:45:55;6.47;;;4.60;;
44706;SDS011;30433;45.596;8.408;2023-07-22T16:51:59;8.50;;;4.30;;
44706;SDS011;30433;45.596;8.408;2023-07-22T16:58:01;7.47;;;4.53;;
44706;SDS011;30433;45.596;8.408;2023-07-22T17:04:04;6.63;;;4.30;;
44706;SDS011;30433;45.596;8.408;2023-07-22T17:10:09;8.07;;;4.78;;
44706;SDS011;30433;45.596;8.408;2023-07-22T17:16:11;7.25;;;4.82;;
44706;SDS011;30433;45.596;8.408;2023-07-22T17:22:13;6.63;;;4.72;;
44706;SDS011;30433;45.596;8.408;2023-07-22T17:28:17;6.57;;;4.90;;
44706;SDS011;30433;45.596;8.408;2023-07-22T17:34:19;5.88;;;4.40;;
44706;SDS011;30433;45.596;8.408;2023-07-22T17:40:21;8.85;;;5.07;;
44706;SDS011;30433;45.596;8.408;2023-07-22T17:46:27;5.25;;;4.75;;
44706;SDS011;30433;45.596;8.408;2023-07-22T17:52:30;5.78;;;4.82;;
44706;SDS011;30433;45.596;8.408;2023-07-22T17:58:32;6.72;;;4.97;;
44706;SDS011;30433;45.596;8.408;2023-07-22T18:04:35;4.88;;;4.18;;
44706;SDS011;30433;45.596;8.408;2023-07-22T18:10:38;6.43;;;4.22;;
44706;SDS011;30433;45.596;8.408;2023-07-22T18:16:40;6.97;;;4.95;;
44706;SDS011;30433;45.596;8.408;2023-07-22T18:22:43;6.32;;;5.10;;
44706;SDS011;30433;45.596;8.408;2023-07-22T18:28:46;5.72;;;4.47;;
44706;SDS011;30433;45.596;8.408;2023-07-22T18:34:48;5.78;;;4.90;;
44706;SDS011;30433;45.596;8.408;2023-07-22T18:40:52;5.57;;;4.57;;
44706;SDS011;30433;45.596;8.408;2023-07-22T18:46:54;7.07;;;4.38;;
44706;SDS011;30433;45.596;8.408;2023-07-22T18:52:56;5.68;;;4.47;;
44706;SDS011;30433;45.596;8.408;2023-07-22T18:59:01;5.97;;;4.55;;
44706;SDS011;30433;45.596;8.408;2023-07-22T19:05:03;6.30;;;4.97;;
44706;SDS011;30433;45.596;8.408;2023-07-22T19:11:06;8.63;;;5.30;;
44706;SDS011;30433;45.596;8.408;2023-07-22T19:17:12;7.30;;;5.13;;
44706;SDS011;30433;45.596;8.408;2023-07-22T19:23:14;6.63;;;4.93;;
44706;SDS011;30433;45.596;8.408;2023-07-22T19:29:16;7.78;;;5.47;;
44706;SDS011;30433;45.596;8.408;2023-07-22T19:35:20;5.93;;;4.93;;
44706;SDS011;30433;45.596;8.408;2023-07-22T19:41:22;6.78;;;5.18;;
44706;SDS011;30433;45.596;8.408;2023-07-22T19:47:24;6.43;;;5.35;;
44706;SDS011;30433;45.596;8.408;2023-07-22T19:53:28;11.10;;;6.07;;
44706;SDS011;30433;45.596;8.408;2023-07-22T19:59:30;11.50;;;6.25;;
44706;SDS011;30433;45.596;8.408;2023-07-22T20:05:33;7.60;;;6.43;;
44706;SDS011;30433;45.596;8.408;2023-07-22T20:11:36;6.38;;;5.78;;
44706;SDS011;30433;45.596;8.408;2023-07-22T20:17:39;7.00;;;6.30;;
44706;SDS011;30433;45.596;8.408;2023-07-22T20:23:41;7.60;;;6.60;;
44706;SDS011;30433;45.596;8.408;2023-07-22T20:29:46;6.88;;;6.10;;
44706;SDS011;30433;45.596;8.408;2023-07-22T20:35:52;9.20;;;6.40;;
44706;SDS011;30433;45.596;8.408;2023-07-22T20:41:54;8.93;;;6.03;;
44706;SDS011;30433;45.596;8.408;2023-07-22T20:47:58;6.90;;;6.20;;
44706;SDS011;30433;45.596;8.408;2023-07-22T20:54:00;7.63;;;6.18;;
44706;SDS011;30433;45.596;8.408;2023-07-22T21:00:03;7.47;;;6.10;;
44706;SDS011;30433;45.596;8.408;2023-07-22T21:06:08;7.10;;;6.35;;
44706;SDS011;30433;45.596;8.408;2023-07-22T21:12:10;7.22;;;6.53;;
44706;SDS011;30433;45.596;8.408;2023-07-22T21:18:12;7.80;;;6.47;;
44706;SDS011;30433;45.596;8.408;2023-07-22T21:24:16;9.38;;;6.70;;
44706;SDS011;30433;45.596;8.408;2023-07-22T21:30:18;7.45;;;6.40;;
44706;SDS011;30433;45.596;8.408;2023-07-22T21:36:20;7.07;;;6.38;;
44706;SDS011;30433;45.596;8.408;2023-07-22T21:42:24;6.88;;;6.10;;
44706;SDS011;30433;45.596;8.408;2023-07-22T21:48:27;8.07;;;6.50;;
44706;SDS011;30433;45.596;8.408;2023-07-22T22:00:32;7.00;;;6.30;;
44706;SDS011;30433;45.596;8.408;2023-07-22T22:06:35;8.30;;;6.00;;
44706;SDS011;30433;45.596;8.408;2023-07-22T22:12:41;6.38;;;5.68;;
44706;SDS011;30433;45.596;8.408;2023-07-22T22:24:46;8.80;;;6.00;;
44706;SDS011;30433;45.596;8.408;2023-07-22T22:36:52;6.80;;;5.70;;
44706;SDS011;30433;45.596;8.408;2023-07-22T22:42:54;6.63;;;5.93;;
44706;SDS011;30433;45.596;8.408;2023-07-22T22:54:59;7.90;;;5.82;;
44706;SDS011;30433;45.596;8.408;2023-07-22T23:01:02;6.07;;;5.47;;
44706;SDS011;30433;45.596;8.408;2023-07-22T23:07:11;9.05;;;6.82;;
44706;SDS011;30433;45.596;8.408;2023-07-22T23:19:17;10.07;;;7.65;;
44706;SDS011;30433;45.596;8.408;2023-07-22T23:25:19;8.13;;;6.90;;
44706;SDS011;30433;45.596;8.408;2023-07-22T23:31:23;6.90;;;6.20;;
44706;SDS011;30433;45.596;8.408;2023-07-22T23:37:25;10.27;;;6.35;;
44706;SDS011;30433;45.596;8.408;2023-07-22T23:43:28;7.00;;;5.47;;
